<?xml version="1.0" encoding="UTF-8" standalone="no" ?>
<gpx xmlns="http://www.topografix.com/GPX/1/1" xmlns:xsi="http://www.w3.org/2001/XMLSchema-instance" xsi:schemaLocation="http://www.topografix.com/GPX/1/1 http://www.topografix.com/GPX/1/1/gpx.xsd" version="1.1" creator="VisuGPX - https://www.visugpx.com">
  <metadata>
    <name>Vielle-Saint-Girons</name>
  </metadata>
  <trk>
    <name><![CDATA[2021 08 30 Vielle-Saint-Girons]]></name>
    <trkseg>
      <trkpt lat="43.90285" lon="-1.37753">
        <ele>12.17854</ele>
        <time>2021-08-30T14:33:33.000Z</time>
      </trkpt>
      <trkpt lat="43.90283" lon="-1.37751">
        <ele>12.66475</ele>
        <time>2021-08-30T14:34:39.000Z</time>
      </trkpt>
      <trkpt lat="43.90271" lon="-1.37726">
        <ele>14.35508</ele>
        <time>2021-08-30T14:35:00.000Z</time>
      </trkpt>
      <trkpt lat="43.90266" lon="-1.37687">
        <ele>17.9068</ele>
        <time>2021-08-30T14:35:21.000Z</time>
      </trkpt>
      <trkpt lat="43.90265" lon="-1.37667">
        <ele>17.36134</ele>
        <time>2021-08-30T14:35:42.000Z</time>
      </trkpt>
      <trkpt lat="43.9026" lon="-1.37647">
        <ele>16.70858</ele>
        <time>2021-08-30T14:36:02.000Z</time>
      </trkpt>
      <trkpt lat="43.90254" lon="-1.37626">
        <ele>16.04749</ele>
        <time>2021-08-30T14:36:23.000Z</time>
      </trkpt>
      <trkpt lat="43.90247" lon="-1.37604">
        <ele>13.56901</ele>
        <time>2021-08-30T14:36:43.000Z</time>
      </trkpt>
      <trkpt lat="43.90238" lon="-1.37591">
        <ele>12.04208</ele>
        <time>2021-08-30T14:37:04.000Z</time>
      </trkpt>
      <trkpt lat="43.9023" lon="-1.37571">
        <ele>10.74307</ele>
        <time>2021-08-30T14:37:24.000Z</time>
      </trkpt>
      <trkpt lat="43.90216" lon="-1.37546">
        <ele>7.95607</ele>
        <time>2021-08-30T14:37:44.000Z</time>
      </trkpt>
      <trkpt lat="43.90208" lon="-1.37525">
        <ele>7.1939</ele>
        <time>2021-08-30T14:38:04.000Z</time>
      </trkpt>
      <trkpt lat="43.90204" lon="-1.37498">
        <ele>7.81992</ele>
        <time>2021-08-30T14:38:25.000Z</time>
      </trkpt>
      <trkpt lat="43.90205" lon="-1.37476">
        <ele>7.35627</ele>
        <time>2021-08-30T14:38:45.000Z</time>
      </trkpt>
      <trkpt lat="43.90202" lon="-1.3745">
        <ele>7.78768</ele>
        <time>2021-08-30T14:39:06.000Z</time>
      </trkpt>
      <trkpt lat="43.90195" lon="-1.37447">
        <ele>7.73578</ele>
        <time>2021-08-30T14:39:27.000Z</time>
      </trkpt>
      <trkpt lat="43.90181" lon="-1.37437">
        <ele>7.32873</ele>
        <time>2021-08-30T14:39:48.000Z</time>
      </trkpt>
      <trkpt lat="43.90179" lon="-1.37432">
        <ele>7.40441</ele>
        <time>2021-08-30T14:44:54.000Z</time>
      </trkpt>
      <trkpt lat="43.90197" lon="-1.37403">
        <ele>9.69706</ele>
        <time>2021-08-30T14:45:15.000Z</time>
      </trkpt>
      <trkpt lat="43.90193" lon="-1.37338">
        <ele>12.1924</ele>
        <time>2021-08-30T14:45:35.000Z</time>
      </trkpt>
      <trkpt lat="43.9019" lon="-1.37271">
        <ele>17.04286</ele>
        <time>2021-08-30T14:45:55.000Z</time>
      </trkpt>
      <trkpt lat="43.90181" lon="-1.37191">
        <ele>20.16057</ele>
        <time>2021-08-30T14:46:16.000Z</time>
      </trkpt>
      <trkpt lat="43.90148" lon="-1.37168">
        <ele>21.16405</ele>
        <time>2021-08-30T14:46:37.000Z</time>
      </trkpt>
      <trkpt lat="43.90126" lon="-1.37175">
        <ele>21.36331</ele>
        <time>2021-08-30T14:46:58.000Z</time>
      </trkpt>
      <trkpt lat="43.90097" lon="-1.37183">
        <ele>21.49896</ele>
        <time>2021-08-30T14:47:18.000Z</time>
      </trkpt>
      <trkpt lat="43.90059" lon="-1.37171">
        <ele>20.32562</ele>
        <time>2021-08-30T14:47:39.000Z</time>
      </trkpt>
      <trkpt lat="43.90003" lon="-1.37136">
        <ele>15.09445</ele>
        <time>2021-08-30T14:48:00.000Z</time>
      </trkpt>
      <trkpt lat="43.8996" lon="-1.36812">
        <ele>6.94809</ele>
        <time>2021-08-30T14:48:51.000Z</time>
      </trkpt>
      <trkpt lat="43.89962" lon="-1.36689">
        <ele>6.92526</ele>
        <time>2021-08-30T14:49:12.000Z</time>
      </trkpt>
      <trkpt lat="43.89954" lon="-1.36601">
        <ele>7.57937</ele>
        <time>2021-08-30T14:49:33.000Z</time>
      </trkpt>
      <trkpt lat="43.89959" lon="-1.36589">
        <ele>7.53399</ele>
        <time>2021-08-30T14:49:54.000Z</time>
      </trkpt>
      <trkpt lat="43.89951" lon="-1.36597">
        <ele>7.64025</ele>
        <time>2021-08-30T14:50:15.000Z</time>
      </trkpt>
      <trkpt lat="43.89961" lon="-1.36517">
        <ele>7.86027</ele>
        <time>2021-08-30T14:50:35.000Z</time>
      </trkpt>
      <trkpt lat="43.90034" lon="-1.36455">
        <ele>7.68654</ele>
        <time>2021-08-30T14:50:56.000Z</time>
      </trkpt>
      <trkpt lat="43.90111" lon="-1.36449">
        <ele>7.87424</ele>
        <time>2021-08-30T14:51:17.000Z</time>
      </trkpt>
      <trkpt lat="43.90207" lon="-1.36418">
        <ele>6.37561</ele>
        <time>2021-08-30T14:51:38.000Z</time>
      </trkpt>
      <trkpt lat="43.90295" lon="-1.3639">
        <ele>9.32782</ele>
        <time>2021-08-30T14:51:59.000Z</time>
      </trkpt>
      <trkpt lat="43.9037" lon="-1.36358">
        <ele>9.44593</ele>
        <time>2021-08-30T14:52:19.000Z</time>
      </trkpt>
      <trkpt lat="43.90461" lon="-1.36319">
        <ele>7.92425</ele>
        <time>2021-08-30T14:52:40.000Z</time>
      </trkpt>
      <trkpt lat="43.90545" lon="-1.36233">
        <ele>6.62895</ele>
        <time>2021-08-30T14:53:00.000Z</time>
      </trkpt>
      <trkpt lat="43.90618" lon="-1.362">
        <ele>6.4725</ele>
        <time>2021-08-30T14:53:20.000Z</time>
      </trkpt>
      <trkpt lat="43.90709" lon="-1.3617">
        <ele>6.83035</ele>
        <time>2021-08-30T14:53:40.000Z</time>
      </trkpt>
      <trkpt lat="43.90769" lon="-1.36099">
        <ele>7.42753</ele>
        <time>2021-08-30T14:54:01.000Z</time>
      </trkpt>
      <trkpt lat="43.90854" lon="-1.35978">
        <ele>6.66245</ele>
        <time>2021-08-30T14:54:22.000Z</time>
      </trkpt>
      <trkpt lat="43.90934" lon="-1.35854">
        <ele>7.00856</ele>
        <time>2021-08-30T14:54:42.000Z</time>
      </trkpt>
      <trkpt lat="43.91019" lon="-1.3574">
        <ele>8.90049</ele>
        <time>2021-08-30T14:55:03.000Z</time>
      </trkpt>
      <trkpt lat="43.91071" lon="-1.35681">
        <ele>12.38393</ele>
        <time>2021-08-30T14:55:23.000Z</time>
      </trkpt>
      <trkpt lat="43.91161" lon="-1.35665">
        <ele>12.59731</ele>
        <time>2021-08-30T14:55:44.000Z</time>
      </trkpt>
      <trkpt lat="43.91211" lon="-1.35547">
        <ele>12.27897</ele>
        <time>2021-08-30T14:56:04.000Z</time>
      </trkpt>
      <trkpt lat="43.9123" lon="-1.35376">
        <ele>13.78805</ele>
        <time>2021-08-30T14:56:25.000Z</time>
      </trkpt>
      <trkpt lat="43.91282" lon="-1.35243">
        <ele>9.57316</ele>
        <time>2021-08-30T14:56:46.000Z</time>
      </trkpt>
      <trkpt lat="43.91261" lon="-1.35215">
        <ele>11.88363</ele>
        <time>2021-08-30T14:57:06.000Z</time>
      </trkpt>
      <trkpt lat="43.91284" lon="-1.35237">
        <ele>9.87795</ele>
        <time>2021-08-30T14:57:27.000Z</time>
      </trkpt>
      <trkpt lat="43.91246" lon="-1.352">
        <ele>14.10716</ele>
        <time>2021-08-30T14:57:47.000Z</time>
      </trkpt>
      <trkpt lat="43.91231" lon="-1.35128">
        <ele>18.28968</ele>
        <time>2021-08-30T14:58:08.000Z</time>
      </trkpt>
      <trkpt lat="43.91224" lon="-1.35047">
        <ele>19.41166</ele>
        <time>2021-08-30T14:58:29.000Z</time>
      </trkpt>
      <trkpt lat="43.91239" lon="-1.34938">
        <ele>23.95592</ele>
        <time>2021-08-30T14:58:49.000Z</time>
      </trkpt>
      <trkpt lat="43.91251" lon="-1.34823">
        <ele>25.82957</ele>
        <time>2021-08-30T14:59:09.000Z</time>
      </trkpt>
      <trkpt lat="43.91249" lon="-1.34417">
        <ele>33.73755</ele>
        <time>2021-08-30T15:00:26.000Z</time>
      </trkpt>
      <trkpt lat="43.91182" lon="-1.3416">
        <ele>39.17919</ele>
        <time>2021-08-30T15:01:16.000Z</time>
      </trkpt>
      <trkpt lat="43.91223" lon="-1.33686">
        <ele>37.34655</ele>
        <time>2021-08-30T15:02:21.000Z</time>
      </trkpt>
      <trkpt lat="43.91218" lon="-1.33093">
        <ele>19.01648</ele>
        <time>2021-08-30T15:03:16.000Z</time>
      </trkpt>
      <trkpt lat="43.91288" lon="-1.32608">
        <ele>13.61949</ele>
        <time>2021-08-30T15:04:19.000Z</time>
      </trkpt>
      <trkpt lat="43.91241" lon="-1.32302">
        <ele>13.76559</ele>
        <time>2021-08-30T15:05:31.000Z</time>
      </trkpt>
      <trkpt lat="43.91235" lon="-1.3206">
        <ele>13.77176</ele>
        <time>2021-08-30T15:06:16.000Z</time>
      </trkpt>
      <trkpt lat="43.9108" lon="-1.31916">
        <ele>12.45052</ele>
        <time>2021-08-30T15:07:22.000Z</time>
      </trkpt>
      <trkpt lat="43.90864" lon="-1.31883">
        <ele>11.05616</ele>
        <time>2021-08-30T15:08:16.000Z</time>
      </trkpt>
      <trkpt lat="43.90889" lon="-1.31557">
        <ele>11.83183</ele>
        <time>2021-08-30T15:09:25.000Z</time>
      </trkpt>
      <trkpt lat="43.907" lon="-1.31489">
        <ele>10.02453</ele>
        <time>2021-08-30T15:10:21.000Z</time>
      </trkpt>
      <trkpt lat="43.90563" lon="-1.31097">
        <ele>9.84498</ele>
        <time>2021-08-30T15:11:18.000Z</time>
      </trkpt>
      <trkpt lat="43.90447" lon="-1.30894">
        <ele>10.10849</ele>
        <time>2021-08-30T15:12:18.000Z</time>
      </trkpt>
      <trkpt lat="43.90305" lon="-1.30493">
        <ele>10.52718</ele>
        <time>2021-08-30T15:13:18.000Z</time>
      </trkpt>
      <trkpt lat="43.90369" lon="-1.30198">
        <ele>13.02849</ele>
        <time>2021-08-30T15:14:16.000Z</time>
      </trkpt>
      <trkpt lat="43.9032" lon="-1.29365">
        <ele>14.65045</ele>
        <time>2021-08-30T15:17:05.000Z</time>
      </trkpt>
      <trkpt lat="43.9032" lon="-1.29365">
        <ele>14.65045</ele>
        <time>2021-08-30T15:17:05.000Z</time>
      </trkpt>
      <trkpt lat="43.90029" lon="-1.29262">
        <ele>12.38417</ele>
        <time>2021-08-30T15:17:26.000Z</time>
      </trkpt>
      <trkpt lat="43.89904" lon="-1.29236">
        <ele>11.96684</ele>
        <time>2021-08-30T15:17:47.000Z</time>
      </trkpt>
      <trkpt lat="43.8979" lon="-1.29219">
        <ele>11.18549</ele>
        <time>2021-08-30T15:18:07.000Z</time>
      </trkpt>
      <trkpt lat="43.89682" lon="-1.29202">
        <ele>10.74598</ele>
        <time>2021-08-30T15:18:27.000Z</time>
      </trkpt>
      <trkpt lat="43.89565" lon="-1.29186">
        <ele>10.20245</ele>
        <time>2021-08-30T15:18:48.000Z</time>
      </trkpt>
      <trkpt lat="43.89437" lon="-1.29169">
        <ele>9.43501</ele>
        <time>2021-08-30T15:19:09.000Z</time>
      </trkpt>
      <trkpt lat="43.89329" lon="-1.29192">
        <ele>9.27549</ele>
        <time>2021-08-30T15:19:29.000Z</time>
      </trkpt>
      <trkpt lat="43.8921" lon="-1.29223">
        <ele>9.44218</ele>
        <time>2021-08-30T15:19:50.000Z</time>
      </trkpt>
      <trkpt lat="43.8912" lon="-1.2926">
        <ele>9.11625</ele>
        <time>2021-08-30T15:20:10.000Z</time>
      </trkpt>
      <trkpt lat="43.89064" lon="-1.2928">
        <ele>9.21859</ele>
        <time>2021-08-30T15:20:31.000Z</time>
      </trkpt>
      <trkpt lat="43.89042" lon="-1.29263">
        <ele>9.40822</ele>
        <time>2021-08-30T15:20:52.000Z</time>
      </trkpt>
      <trkpt lat="43.88977" lon="-1.29298">
        <ele>9.57232</ele>
        <time>2021-08-30T15:21:13.000Z</time>
      </trkpt>
      <trkpt lat="43.88886" lon="-1.29333">
        <ele>10.05067</ele>
        <time>2021-08-30T15:21:34.000Z</time>
      </trkpt>
      <trkpt lat="43.88797" lon="-1.29367">
        <ele>10.38585</ele>
        <time>2021-08-30T15:21:54.000Z</time>
      </trkpt>
      <trkpt lat="43.88712" lon="-1.29447">
        <ele>10.07289</ele>
        <time>2021-08-30T15:22:15.000Z</time>
      </trkpt>
      <trkpt lat="43.88624" lon="-1.29585">
        <ele>9.66324</ele>
        <time>2021-08-30T15:22:36.000Z</time>
      </trkpt>
      <trkpt lat="43.88555" lon="-1.29717">
        <ele>9.75673</ele>
        <time>2021-08-30T15:22:57.000Z</time>
      </trkpt>
      <trkpt lat="43.88494" lon="-1.2985">
        <ele>9.72455</ele>
        <time>2021-08-30T15:23:17.000Z</time>
      </trkpt>
      <trkpt lat="43.88409" lon="-1.29959">
        <ele>9.67928</ele>
        <time>2021-08-30T15:23:38.000Z</time>
      </trkpt>
      <trkpt lat="43.88318" lon="-1.30064">
        <ele>10.18813</ele>
        <time>2021-08-30T15:23:59.000Z</time>
      </trkpt>
      <trkpt lat="43.8824" lon="-1.30144">
        <ele>13.26009</ele>
        <time>2021-08-30T15:24:19.000Z</time>
      </trkpt>
      <trkpt lat="43.88142" lon="-1.30184">
        <ele>14.65168</ele>
        <time>2021-08-30T15:24:40.000Z</time>
      </trkpt>
      <trkpt lat="43.8805" lon="-1.30154">
        <ele>15.28743</ele>
        <time>2021-08-30T15:25:00.000Z</time>
      </trkpt>
      <trkpt lat="43.87991" lon="-1.30143">
        <ele>15.54542</ele>
        <time>2021-08-30T15:25:21.000Z</time>
      </trkpt>
      <trkpt lat="43.87932" lon="-1.30162">
        <ele>15.67702</ele>
        <time>2021-08-30T15:25:41.000Z</time>
      </trkpt>
      <trkpt lat="43.87933" lon="-1.30166">
        <ele>15.65867</ele>
        <time>2021-08-30T15:26:22.000Z</time>
      </trkpt>
      <trkpt lat="43.87918" lon="-1.30174">
        <ele>15.58768</ele>
        <time>2021-08-30T15:26:42.000Z</time>
      </trkpt>
      <trkpt lat="43.87878" lon="-1.30193">
        <ele>15.40266</ele>
        <time>2021-08-30T15:27:03.000Z</time>
      </trkpt>
      <trkpt lat="43.87834" lon="-1.30215">
        <ele>15.7667</ele>
        <time>2021-08-30T15:27:24.000Z</time>
      </trkpt>
      <trkpt lat="43.87785" lon="-1.30238">
        <ele>16.05437</ele>
        <time>2021-08-30T15:27:45.000Z</time>
      </trkpt>
      <trkpt lat="43.87732" lon="-1.30256">
        <ele>17.61769</ele>
        <time>2021-08-30T15:28:06.000Z</time>
      </trkpt>
      <trkpt lat="43.87676" lon="-1.30286">
        <ele>22.76175</ele>
        <time>2021-08-30T15:28:27.000Z</time>
      </trkpt>
      <trkpt lat="43.87627" lon="-1.30301">
        <ele>24.63742</ele>
        <time>2021-08-30T15:28:47.000Z</time>
      </trkpt>
      <trkpt lat="43.87574" lon="-1.30291">
        <ele>26.8318</ele>
        <time>2021-08-30T15:29:08.000Z</time>
      </trkpt>
      <trkpt lat="43.87538" lon="-1.30279">
        <ele>27.89743</ele>
        <time>2021-08-30T15:29:28.000Z</time>
      </trkpt>
      <trkpt lat="43.87535" lon="-1.3028">
        <ele>27.81486</ele>
        <time>2021-08-30T15:29:49.000Z</time>
      </trkpt>
      <trkpt lat="43.87529" lon="-1.30271">
        <ele>27.1341</ele>
        <time>2021-08-30T15:30:10.000Z</time>
      </trkpt>
      <trkpt lat="43.87522" lon="-1.30233">
        <ele>25.8032</ele>
        <time>2021-08-30T15:30:30.000Z</time>
      </trkpt>
      <trkpt lat="43.87521" lon="-1.30232">
        <ele>25.72175</ele>
        <time>2021-08-30T15:34:19.000Z</time>
      </trkpt>
      <trkpt lat="43.87521" lon="-1.30232">
        <ele>25.72175</ele>
        <time>2021-08-30T15:34:19.000Z</time>
      </trkpt>
      <trkpt lat="43.87528" lon="-1.30227">
        <ele>26.03267</ele>
        <time>2021-08-30T15:59:12.000Z</time>
      </trkpt>
      <trkpt lat="43.87528" lon="-1.30222">
        <ele>25.81204</ele>
        <time>2021-08-30T16:02:17.000Z</time>
      </trkpt>
      <trkpt lat="43.87558" lon="-1.30158">
        <ele>17.78275</ele>
        <time>2021-08-30T16:02:37.000Z</time>
      </trkpt>
      <trkpt lat="43.87558" lon="-1.30158">
        <ele>17.78275</ele>
        <time>2021-08-30T16:02:37.000Z</time>
      </trkpt>
      <trkpt lat="43.87621" lon="-1.30189">
        <ele>17.37238</ele>
        <time>2021-08-30T16:02:58.000Z</time>
      </trkpt>
      <trkpt lat="43.8769" lon="-1.30224">
        <ele>17.75407</ele>
        <time>2021-08-30T16:03:19.000Z</time>
      </trkpt>
      <trkpt lat="43.87737" lon="-1.30262">
        <ele>17.70004</ele>
        <time>2021-08-30T16:03:40.000Z</time>
      </trkpt>
      <trkpt lat="43.87737" lon="-1.30262">
        <ele>17.70004</ele>
        <time>2021-08-30T16:03:40.000Z</time>
      </trkpt>
      <trkpt lat="43.87796" lon="-1.30232">
        <ele>15.91728</ele>
        <time>2021-08-30T16:04:00.000Z</time>
      </trkpt>
      <trkpt lat="43.87841" lon="-1.30221">
        <ele>15.77269</ele>
        <time>2021-08-30T16:04:21.000Z</time>
      </trkpt>
      <trkpt lat="43.8785" lon="-1.30163">
        <ele>15.33788</ele>
        <time>2021-08-30T16:04:42.000Z</time>
      </trkpt>
      <trkpt lat="43.87878" lon="-1.30114">
        <ele>15.41957</ele>
        <time>2021-08-30T16:05:03.000Z</time>
      </trkpt>
      <trkpt lat="43.87886" lon="-1.30094">
        <ele>15.54614</ele>
        <time>2021-08-30T16:05:24.000Z</time>
      </trkpt>
      <trkpt lat="43.87889" lon="-1.30094">
        <ele>15.54808</ele>
        <time>2021-08-30T16:06:46.000Z</time>
      </trkpt>
    </trkseg>
  </trk>
</gpx>